Steelmantown, New Jersey
Current Conditions -  °F | °C
As of 10:54 AM on Tuesday 21 Oct 2014 (Local Time) from KMIV Reporting Station
Broken Clouds Broken Clouds  
Wind Chill: 64°   Ceiling: 8000
Heat Index: 64°   Visibility: 10mi
Dew Point: 53°   Wind: 7mph
Humidity: 67%   Direction: 260°W
Pressure: 29.87"   Gusts: NA
Location:  39.2589°N, 74.8124°W
Report Text: KMIV 211454Z AUTO 26006KT 10SM SCT055 BKN080 18/12 A2987 RMK AO2 SLP113 T01780117 58002
Loading
Personal Weather Stations






























Interactive Weather Map
Tropical Storm Tracking
New forecast layout! Learn more

10-Day Weather Forecast

Advertisements
Track Severe Weather on mobile